sensor_id;sensor_type;location;lat;lon;timestamp;P1;durP1;ratioP1;P2;durP2;ratioP2
68989;SDS011;56046;47.270;11.368;2022-10-22T00:02:16;12.57;;;6.33;;
68989;SDS011;56046;47.270;11.368;2022-10-22T00:04:45;13.35;;;5.22;;
68989;SDS011;56046;47.270;11.368;2022-10-22T00:07:12;13.13;;;6.03;;
68989;SDS011;56046;47.270;11.368;2022-10-22T00:09:37;12.02;;;5.80;;
68989;SDS011;56046;47.270;11.368;2022-10-22T00:12:03;14.83;;;6.03;;
68989;SDS011;56046;47.270;11.368;2022-10-22T00:14:29;11.20;;;6.38;;
68989;SDS011;56046;47.270;11.368;2022-10-22T00:16:54;13.77;;;6.50;;
68989;SDS011;56046;47.270;11.368;2022-10-22T00:19:20;10.18;;;5.35;;
68989;SDS011;56046;47.270;11.368;2022-10-22T00:21:45;14.80;;;5.80;;
68989;SDS011;56046;47.270;11.368;2022-10-22T00:24:11;12.77;;;6.05;;
68989;SDS011;56046;47.270;11.368;2022-10-22T00:26:36;13.93;;;5.53;;
68989;SDS011;56046;47.270;11.368;2022-10-22T00:29:03;9.00;;;5.07;;
68989;SDS011;56046;47.270;11.368;2022-10-22T00:31:29;13.50;;;5.60;;
68989;SDS011;56046;47.270;11.368;2022-10-22T00:33:54;11.13;;;4.78;;
68989;SDS011;56046;47.270;11.368;2022-10-22T00:36:20;9.60;;;3.93;;
68989;SDS011;56046;47.270;11.368;2022-10-22T00:38:45;12.83;;;5.63;;
68989;SDS011;56046;47.270;11.368;2022-10-22T00:41:11;10.82;;;4.82;;
68989;SDS011;56046;47.270;11.368;2022-10-22T00:43:53;12.80;;;5.27;;
68989;SDS011;56046;47.270;11.368;2022-10-22T00:46:18;11.57;;;5.35;;
68989;SDS011;56046;47.270;11.368;2022-10-22T00:48:44;10.07;;;5.23;;
68989;SDS011;56046;47.270;11.368;2022-10-22T00:51:09;15.83;;;4.93;;
68989;SDS011;56046;47.270;11.368;2022-10-22T00:53:36;13.32;;;4.90;;
68989;SDS011;56046;47.270;11.368;2022-10-22T00:56:05;12.47;;;5.07;;
68989;SDS011;56046;47.270;11.368;2022-10-22T00:58:33;9.43;;;4.65;;
68989;SDS011;56046;47.270;11.368;2022-10-22T01:01:00;11.98;;;4.78;;
68989;SDS011;56046;47.270;11.368;2022-10-22T01:03:26;10.27;;;5.03;;
68989;SDS011;56046;47.270;11.368;2022-10-22T01:16:59;11.32;;;4.68;;
68989;SDS011;56046;47.270;11.368;2022-10-22T01:19:44;9.43;;;4.22;;
68989;SDS011;56046;47.270;11.368;2022-10-22T01:22:34;8.82;;;4.55;;
68989;SDS011;56046;47.270;11.368;2022-10-22T01:25:11;10.57;;;4.43;;
68989;SDS011;56046;47.270;11.368;2022-10-22T01:27:56;13.27;;;5.10;;
68989;SDS011;56046;47.270;11.368;2022-10-22T01:30:43;9.82;;;5.28;;
68989;SDS011;56046;47.270;11.368;2022-10-22T01:33:12;11.25;;;5.40;;
68989;SDS011;56046;47.270;11.368;2022-10-22T01:35:40;12.65;;;5.53;;
68989;SDS011;56046;47.270;11.368;2022-10-22T01:38:10;14.25;;;6.20;;
68989;SDS011;56046;47.270;11.368;2022-10-22T01:40:38;9.83;;;5.63;;
68989;SDS011;56046;47.270;11.368;2022-10-22T01:43:05;11.73;;;5.68;;
68989;SDS011;56046;47.270;11.368;2022-10-22T01:45:32;12.82;;;5.53;;
68989;SDS011;56046;47.270;11.368;2022-10-22T01:48:08;13.93;;;5.85;;
68989;SDS011;56046;47.270;11.368;2022-10-22T02:02:22;14.07;;;6.50;;
68989;SDS011;56046;47.270;11.368;2022-10-22T02:04:54;11.50;;;5.13;;
68989;SDS011;56046;47.270;11.368;2022-10-22T02:07:25;11.03;;;6.03;;
68989;SDS011;56046;47.270;11.368;2022-10-22T02:09:53;14.77;;;5.63;;
68989;SDS011;56046;47.270;11.368;2022-10-22T02:12:20;12.55;;;5.40;;
68989;SDS011;56046;47.270;11.368;2022-10-22T02:14:47;13.10;;;5.45;;
68989;SDS011;56046;47.270;11.368;2022-10-22T02:17:15;10.50;;;4.85;;
68989;SDS011;56046;47.270;11.368;2022-10-22T02:19:46;12.83;;;5.17;;
68989;SDS011;56046;47.270;11.368;2022-10-22T02:22:25;10.82;;;5.65;;
68989;SDS011;56046;47.270;11.368;2022-10-22T02:24:51;14.45;;;5.68;;
68989;SDS011;56046;47.270;11.368;2022-10-22T02:27:22;10.43;;;5.47;;
68989;SDS011;56046;47.270;11.368;2022-10-22T02:30:05;11.27;;;5.63;;
68989;SDS011;56046;47.270;11.368;2022-10-22T02:32:39;13.25;;;6.38;;
68989;SDS011;56046;47.270;11.368;2022-10-22T02:35:20;16.83;;;6.00;;
68989;SDS011;56046;47.270;11.368;2022-10-22T02:37:48;12.50;;;6.40;;
68989;SDS011;56046;47.270;11.368;2022-10-22T02:40:15;10.80;;;5.90;;
68989;SDS011;56046;47.270;11.368;2022-10-22T02:42:41;13.07;;;6.00;;
68989;SDS011;56046;47.270;11.368;2022-10-22T02:45:07;17.08;;;6.07;;
68989;SDS011;56046;47.270;11.368;2022-10-22T02:47:33;12.55;;;6.10;;
68989;SDS011;56046;47.270;11.368;2022-10-22T02:49:58;13.10;;;6.17;;
68989;SDS011;56046;47.270;11.368;2022-10-22T02:52:23;20.93;;;6.33;;
68989;SDS011;56046;47.270;11.368;2022-10-22T02:54:49;11.70;;;5.87;;
68989;SDS011;56046;47.270;11.368;2022-10-22T02:57:14;13.40;;;5.83;;
68989;SDS011;56046;47.270;11.368;2022-10-22T02:59:40;13.95;;;5.70;;
68989;SDS011;56046;47.270;11.368;2022-10-22T03:02:05;12.77;;;6.13;;
68989;SDS011;56046;47.270;11.368;2022-10-22T03:04:31;11.30;;;6.10;;
68989;SDS011;56046;47.270;11.368;2022-10-22T03:06:56;13.90;;;6.37;;
68989;SDS011;56046;47.270;11.368;2022-10-22T03:09:21;12.25;;;6.22;;
68989;SDS011;56046;47.270;11.368;2022-10-22T03:11:47;14.87;;;6.87;;
68989;SDS011;56046;47.270;11.368;2022-10-22T03:14:12;17.40;;;6.73;;
68989;SDS011;56046;47.270;11.368;2022-10-22T03:16:38;17.00;;;7.30;;
68989;SDS011;56046;47.270;11.368;2022-10-22T03:19:03;15.57;;;7.47;;
68989;SDS011;56046;47.270;11.368;2022-10-22T03:21:39;14.47;;;7.20;;
68989;SDS011;56046;47.270;11.368;2022-10-22T03:24:09;13.55;;;6.75;;
68989;SDS011;56046;47.270;11.368;2022-10-22T03:26:37;13.00;;;6.53;;
68989;SDS011;56046;47.270;11.368;2022-10-22T03:29:04;13.00;;;6.33;;
68989;SDS011;56046;47.270;11.368;2022-10-22T03:31:30;12.38;;;6.07;;
68989;SDS011;56046;47.270;11.368;2022-10-22T03:33:55;16.50;;;7.10;;
68989;SDS011;56046;47.270;11.368;2022-10-22T03:36:21;13.00;;;7.23;;
68989;SDS011;56046;47.270;11.368;2022-10-22T03:38:46;12.98;;;6.82;;
68989;SDS011;56046;47.270;11.368;2022-10-22T03:41:12;14.07;;;6.90;;
68989;SDS011;56046;47.270;11.368;2022-10-22T03:43:37;14.87;;;7.27;;
68989;SDS011;56046;47.270;11.368;2022-10-22T03:46:04;15.07;;;6.38;;
68989;SDS011;56046;47.270;11.368;2022-10-22T03:48:30;14.77;;;5.88;;
68989;SDS011;56046;47.270;11.368;2022-10-22T03:50:56;13.23;;;6.57;;
68989;SDS011;56046;47.270;11.368;2022-10-22T03:53:21;11.40;;;5.60;;
68989;SDS011;56046;47.270;11.368;2022-10-22T03:55:47;11.85;;;5.47;;
68989;SDS011;56046;47.270;11.368;2022-10-22T03:58:12;13.40;;;5.40;;
68989;SDS011;56046;47.270;11.368;2022-10-22T04:00:38;13.10;;;5.13;;
68989;SDS011;56046;47.270;11.368;2022-10-22T04:03:03;15.38;;;6.00;;
68989;SDS011;56046;47.270;11.368;2022-10-22T04:05:30;11.73;;;5.70;;
68989;SDS011;56046;47.270;11.368;2022-10-22T04:07:56;10.80;;;5.30;;
68989;SDS011;56046;47.270;11.368;2022-10-22T04:10:22;9.93;;;5.47;;
68989;SDS011;56046;47.270;11.368;2022-10-22T04:12:47;9.90;;;4.80;;
68989;SDS011;56046;47.270;11.368;2022-10-22T04:15:13;10.70;;;5.07;;
68989;SDS011;56046;47.270;11.368;2022-10-22T04:17:38;17.15;;;6.70;;
68989;SDS011;56046;47.270;11.368;2022-10-22T04:20:04;14.27;;;6.50;;
68989;SDS011;56046;47.270;11.368;2022-10-22T04:22:33;12.55;;;6.15;;
68989;SDS011;56046;47.270;11.368;2022-10-22T04:24:59;12.15;;;6.15;;
68989;SDS011;56046;47.270;11.368;2022-10-22T04:27:27;12.50;;;5.33;;
68989;SDS011;56046;47.270;11.368;2022-10-22T04:29:54;11.50;;;5.70;;
68989;SDS011;56046;47.270;11.368;2022-10-22T04:32:19;14.37;;;5.60;;
68989;SDS011;56046;47.270;11.368;2022-10-22T04:34:45;11.47;;;5.53;;
68989;SDS011;56046;47.270;11.368;2022-10-22T04:37:10;13.53;;;5.90;;
68989;SDS011;56046;47.270;11.368;2022-10-22T04:39:36;10.63;;;5.28;;
68989;SDS011;56046;47.270;11.368;2022-10-22T04:42:01;14.23;;;6.20;;
68989;SDS011;56046;47.270;11.368;2022-10-22T04:44:27;13.05;;;6.05;;
68989;SDS011;56046;47.270;11.368;2022-10-22T04:46:53;15.30;;;6.20;;
68989;SDS011;56046;47.270;11.368;2022-10-22T04:49:18;13.85;;;5.72;;
68989;SDS011;56046;47.270;11.368;2022-10-22T04:51:44;13.87;;;5.60;;
68989;SDS011;56046;47.270;11.368;2022-10-22T04:54:09;13.87;;;6.13;;
68989;SDS011;56046;47.270;11.368;2022-10-22T04:56:35;11.65;;;5.97;;
68989;SDS011;56046;47.270;11.368;2022-10-22T04:59:02;10.37;;;5.87;;
68989;SDS011;56046;47.270;11.368;2022-10-22T05:01:29;15.40;;;6.82;;
68989;SDS011;56046;47.270;11.368;2022-10-22T05:03:58;16.80;;;9.27;;
68989;SDS011;56046;47.270;11.368;2022-10-22T05:06:25;13.50;;;6.65;;
68989;SDS011;56046;47.270;11.368;2022-10-22T05:08:55;13.77;;;6.93;;
68989;SDS011;56046;47.270;11.368;2022-10-22T05:11:24;13.38;;;7.05;;
68989;SDS011;56046;47.270;11.368;2022-10-22T05:13:54;13.38;;;6.00;;
68989;SDS011;56046;47.270;11.368;2022-10-22T05:16:21;12.17;;;6.27;;
68989;SDS011;56046;47.270;11.368;2022-10-22T05:18:47;15.13;;;6.72;;
68989;SDS011;56046;47.270;11.368;2022-10-22T05:21:14;13.63;;;6.57;;
68989;SDS011;56046;47.270;11.368;2022-10-22T05:23:41;11.40;;;5.75;;
68989;SDS011;56046;47.270;11.368;2022-10-22T05:26:08;14.95;;;7.32;;
68989;SDS011;56046;47.270;11.368;2022-10-22T05:28:35;17.25;;;7.70;;
68989;SDS011;56046;47.270;11.368;2022-10-22T05:31:01;16.55;;;7.65;;
68989;SDS011;56046;47.270;11.368;2022-10-22T05:33:28;17.07;;;7.93;;
68989;SDS011;56046;47.270;11.368;2022-10-22T05:35:55;14.52;;;6.90;;
68989;SDS011;56046;47.270;11.368;2022-10-22T05:38:21;17.13;;;7.30;;
68989;SDS011;56046;47.270;11.368;2022-10-22T05:40:46;16.65;;;8.13;;
68989;SDS011;56046;47.270;11.368;2022-10-22T05:43:13;18.30;;;8.67;;
68989;SDS011;56046;47.270;11.368;2022-10-22T05:45:39;17.17;;;8.80;;
68989;SDS011;56046;47.270;11.368;2022-10-22T05:48:05;15.48;;;7.50;;
68989;SDS011;56046;47.270;11.368;2022-10-22T05:50:34;13.73;;;7.43;;
68989;SDS011;56046;47.270;11.368;2022-10-22T05:53:01;14.90;;;7.83;;
68989;SDS011;56046;47.270;11.368;2022-10-22T05:55:27;14.25;;;7.95;;
68989;SDS011;56046;47.270;11.368;2022-10-22T05:57:53;17.27;;;8.23;;
68989;SDS011;56046;47.270;11.368;2022-10-22T06:00:18;15.40;;;7.32;;
68989;SDS011;56046;47.270;11.368;2022-10-22T06:02:46;12.43;;;6.80;;
68989;SDS011;56046;47.270;11.368;2022-10-22T06:05:14;13.65;;;6.50;;
68989;SDS011;56046;47.270;11.368;2022-10-22T06:07:39;14.50;;;6.87;;
68989;SDS011;56046;47.270;11.368;2022-10-22T06:10:05;13.30;;;7.77;;
68989;SDS011;56046;47.270;11.368;2022-10-22T06:12:33;18.98;;;9.57;;
68989;SDS011;56046;47.270;11.368;2022-10-22T06:14:58;12.37;;;7.53;;
68989;SDS011;56046;47.270;11.368;2022-10-22T06:17:23;11.70;;;7.25;;
68989;SDS011;56046;47.270;11.368;2022-10-22T06:19:49;13.83;;;7.73;;
68989;SDS011;56046;47.270;11.368;2022-10-22T06:22:14;11.50;;;6.70;;
68989;SDS011;56046;47.270;11.368;2022-10-22T06:24:40;14.33;;;7.53;;
68989;SDS011;56046;47.270;11.368;2022-10-22T06:27:05;13.52;;;7.75;;
68989;SDS011;56046;47.270;11.368;2022-10-22T06:29:31;12.33;;;6.87;;
68989;SDS011;56046;47.270;11.368;2022-10-22T06:31:56;14.23;;;7.80;;
68989;SDS011;56046;47.270;11.368;2022-10-22T06:34:22;13.63;;;7.35;;
68989;SDS011;56046;47.270;11.368;2022-10-22T06:36:47;14.07;;;7.27;;
68989;SDS011;56046;47.270;11.368;2022-10-22T06:39:14;14.60;;;7.47;;
68989;SDS011;56046;47.270;11.368;2022-10-22T06:41:41;12.48;;;6.88;;
68989;SDS011;56046;47.270;11.368;2022-10-22T06:44:06;12.43;;;6.90;;
68989;SDS011;56046;47.270;11.368;2022-10-22T06:46:32;15.23;;;7.13;;
68989;SDS011;56046;47.270;11.368;2022-10-22T06:49:01;13.53;;;7.07;;
68989;SDS011;56046;47.270;11.368;2022-10-22T06:51:27;16.27;;;8.18;;
68989;SDS011;56046;47.270;11.368;2022-10-22T06:53:53;14.73;;;7.97;;
68989;SDS011;56046;47.270;11.368;2022-10-22T06:56:20;16.05;;;8.10;;
68989;SDS011;56046;47.270;11.368;2022-10-22T06:58:47;14.68;;;7.75;;
68989;SDS011;56046;47.270;11.368;2022-10-22T07:01:14;11.23;;;6.75;;
68989;SDS011;56046;47.270;11.368;2022-10-22T07:03:40;12.27;;;6.40;;
68989;SDS011;56046;47.270;11.368;2022-10-22T07:06:08;10.40;;;6.38;;
68989;SDS011;56046;47.270;11.368;2022-10-22T07:08:35;11.00;;;6.35;;
68989;SDS011;56046;47.270;11.368;2022-10-22T07:11:04;12.83;;;6.67;;
68989;SDS011;56046;47.270;11.368;2022-10-22T07:13:34;18.20;;;7.65;;
68989;SDS011;56046;47.270;11.368;2022-10-22T07:16:01;13.80;;;7.00;;
68989;SDS011;56046;47.270;11.368;2022-10-22T07:18:27;14.07;;;7.73;;
68989;SDS011;56046;47.270;11.368;2022-10-22T07:20:53;14.70;;;7.97;;
68989;SDS011;56046;47.270;11.368;2022-10-22T07:23:18;14.30;;;7.90;;
68989;SDS011;56046;47.270;11.368;2022-10-22T07:25:44;15.68;;;7.63;;
68989;SDS011;56046;47.270;11.368;2022-10-22T07:28:10;15.97;;;8.17;;
68989;SDS011;56046;47.270;11.368;2022-10-22T07:30:36;12.32;;;6.55;;
68989;SDS011;56046;47.270;11.368;2022-10-22T07:33:02;11.63;;;6.70;;
68989;SDS011;56046;47.270;11.368;2022-10-22T07:35:27;13.45;;;7.32;;
68989;SDS011;56046;47.270;11.368;2022-10-22T07:37:53;12.50;;;6.87;;
68989;SDS011;56046;47.270;11.368;2022-10-22T07:40:18;14.10;;;5.90;;
68989;SDS011;56046;47.270;11.368;2022-10-22T07:42:44;11.57;;;6.10;;
68989;SDS011;56046;47.270;11.368;2022-10-22T07:45:09;11.43;;;5.57;;
68989;SDS011;56046;47.270;11.368;2022-10-22T07:47:35;8.97;;;4.20;;
68989;SDS011;56046;47.270;11.368;2022-10-22T07:50:00;10.85;;;4.88;;
68989;SDS011;56046;47.270;11.368;2022-10-22T07:52:26;9.13;;;4.37;;
68989;SDS011;56046;47.270;11.368;2022-10-22T07:54:51;10.13;;;4.43;;
68989;SDS011;56046;47.270;11.368;2022-10-22T07:57:17;15.55;;;6.95;;
68989;SDS011;56046;47.270;11.368;2022-10-22T07:59:42;18.63;;;8.13;;
68989;SDS011;56046;47.270;11.368;2022-10-22T08:02:08;19.47;;;7.43;;
68989;SDS011;56046;47.270;11.368;2022-10-22T08:04:35;14.20;;;6.78;;
68989;SDS011;56046;47.270;11.368;2022-10-22T08:07:01;12.00;;;6.07;;
68989;SDS011;56046;47.270;11.368;2022-10-22T08:09:26;9.50;;;5.40;;
68989;SDS011;56046;47.270;11.368;2022-10-22T08:11:51;12.20;;;6.30;;
68989;SDS011;56046;47.270;11.368;2022-10-22T08:14:18;11.25;;;5.60;;
68989;SDS011;56046;47.270;11.368;2022-10-22T08:16:44;9.13;;;4.37;;
68989;SDS011;56046;47.270;11.368;2022-10-22T08:19:09;9.20;;;4.00;;
68989;SDS011;56046;47.270;11.368;2022-10-22T08:21:34;7.45;;;4.10;;
68989;SDS011;56046;47.270;11.368;2022-10-22T08:24:00;8.67;;;3.93;;
68989;SDS011;56046;47.270;11.368;2022-10-22T08:26:25;8.83;;;4.60;;
68989;SDS011;56046;47.270;11.368;2022-10-22T08:28:51;10.50;;;3.90;;
68989;SDS011;56046;47.270;11.368;2022-10-22T08:31:16;8.70;;;3.85;;
68989;SDS011;56046;47.270;11.368;2022-10-22T08:33:42;9.83;;;3.87;;
68989;SDS011;56046;47.270;11.368;2022-10-22T08:36:07;6.53;;;3.67;;
68989;SDS011;56046;47.270;11.368;2022-10-22T08:38:33;6.10;;;3.00;;
68989;SDS011;56046;47.270;11.368;2022-10-22T08:41:05;10.17;;;3.30;;
68989;SDS011;56046;47.270;11.368;2022-10-22T08:46:22;10.02;;;4.50;;
68989;SDS011;56046;47.270;11.368;2022-10-22T08:48:53;6.85;;;2.80;;
68989;SDS011;56046;47.270;11.368;2022-10-22T08:51:23;6.78;;;2.63;;
68989;SDS011;56046;47.270;11.368;2022-10-22T08:56:28;7.00;;;2.90;;
68989;SDS011;56046;47.270;11.368;2022-10-22T08:58:58;6.57;;;3.45;;
68989;SDS011;56046;47.270;11.368;2022-10-22T09:01:40;4.85;;;2.38;;
68989;SDS011;56046;47.270;11.368;2022-10-22T09:04:17;9.23;;;3.65;;
68989;SDS011;56046;47.270;11.368;2022-10-22T09:06:50;11.20;;;4.10;;
68989;SDS011;56046;47.270;11.368;2022-10-22T09:09:17;12.95;;;4.85;;
68989;SDS011;56046;47.270;11.368;2022-10-22T09:11:45;17.42;;;6.95;;
68989;SDS011;56046;47.270;11.368;2022-10-22T09:14:16;19.02;;;6.45;;
68989;SDS011;56046;47.270;11.368;2022-10-22T09:26:46;7.63;;;3.75;;
68989;SDS011;56046;47.270;11.368;2022-10-22T09:29:13;7.80;;;3.20;;
68989;SDS011;56046;47.270;11.368;2022-10-22T09:31:43;7.40;;;2.40;;
68989;SDS011;56046;47.270;11.368;2022-10-22T09:34:09;6.10;;;2.93;;
68989;SDS011;56046;47.270;11.368;2022-10-22T09:36:39;7.80;;;2.20;;
68989;SDS011;56046;47.270;11.368;2022-10-22T09:39:04;5.73;;;2.60;;
68989;SDS011;56046;47.270;11.368;2022-10-22T09:41:46;6.30;;;2.53;;
68989;SDS011;56046;47.270;11.368;2022-10-22T09:44:12;7.20;;;3.30;;
68989;SDS011;56046;47.270;11.368;2022-10-22T09:46:37;7.33;;;3.27;;
68989;SDS011;56046;47.270;11.368;2022-10-22T09:49:10;6.85;;;3.13;;
68989;SDS011;56046;47.270;11.368;2022-10-22T09:51:54;6.90;;;3.30;;
68989;SDS011;56046;47.270;11.368;2022-10-22T09:54:24;7.13;;;3.67;;
68989;SDS011;56046;47.270;11.368;2022-10-22T09:56:51;5.20;;;2.50;;
68989;SDS011;56046;47.270;11.368;2022-10-22T09:59:23;8.17;;;4.47;;
68989;SDS011;56046;47.270;11.368;2022-10-22T10:02:12;10.98;;;7.18;;
68989;SDS011;56046;47.270;11.368;2022-10-22T10:04:43;7.13;;;4.18;;
68989;SDS011;56046;47.270;11.368;2022-10-22T10:07:23;9.23;;;3.90;;
68989;SDS011;56046;47.270;11.368;2022-10-22T10:09:51;11.07;;;6.10;;
68989;SDS011;56046;47.270;11.368;2022-10-22T10:17:35;4.53;;;2.30;;
68989;SDS011;56046;47.270;11.368;2022-10-22T10:20:20;4.65;;;2.53;;
68989;SDS011;56046;47.270;11.368;2022-10-22T10:23:14;11.93;;;7.75;;
68989;SDS011;56046;47.270;11.368;2022-10-22T10:30:41;6.43;;;3.60;;
68989;SDS011;56046;47.270;11.368;2022-10-22T10:33:30;8.40;;;5.22;;
68989;SDS011;56046;47.270;11.368;2022-10-22T10:38:56;6.93;;;3.55;;
68989;SDS011;56046;47.270;11.368;2022-10-22T10:47:07;5.97;;;2.50;;
68989;SDS011;56046;47.270;11.368;2022-10-22T10:49:54;3.90;;;2.00;;
68989;SDS011;56046;47.270;11.368;2022-10-22T10:52:48;5.82;;;2.22;;
68989;SDS011;56046;47.270;11.368;2022-10-22T10:55:33;14.60;;;6.53;;
68989;SDS011;56046;47.270;11.368;2022-10-22T10:58:09;5.95;;;2.80;;
68989;SDS011;56046;47.270;11.368;2022-10-22T11:00:45;3.50;;;1.67;;
68989;SDS011;56046;47.270;11.368;2022-10-22T11:03:33;6.20;;;2.00;;
68989;SDS011;56046;47.270;11.368;2022-10-22T11:06:16;3.78;;;2.05;;
68989;SDS011;56046;47.270;11.368;2022-10-22T11:14:20;3.85;;;1.90;;
68989;SDS011;56046;47.270;11.368;2022-10-22T11:17:08;3.63;;;1.97;;
68989;SDS011;56046;47.270;11.368;2022-10-22T11:19:49;3.83;;;1.85;;
68989;SDS011;56046;47.270;11.368;2022-10-22T11:25:22;4.07;;;1.60;;
68989;SDS011;56046;47.270;11.368;2022-10-22T11:28:02;3.17;;;2.13;;
68989;SDS011;56046;47.270;11.368;2022-10-22T11:30:34;3.60;;;1.70;;
68989;SDS011;56046;47.270;11.368;2022-10-22T11:33:02;3.72;;;2.00;;
68989;SDS011;56046;47.270;11.368;2022-10-22T11:35:34;3.92;;;2.13;;
68989;SDS011;56046;47.270;11.368;2022-10-22T11:38:03;3.53;;;2.13;;
68989;SDS011;56046;47.270;11.368;2022-10-22T11:40:32;3.72;;;2.10;;
68989;SDS011;56046;47.270;11.368;2022-10-22T11:43:05;3.23;;;2.30;;
68989;SDS011;56046;47.270;11.368;2022-10-22T11:50:50;4.50;;;2.22;;
68989;SDS011;56046;47.270;11.368;2022-10-22T12:08:42;2.97;;;1.57;;
68989;SDS011;56046;47.270;11.368;2022-10-22T12:16:39;2.25;;;1.38;;
68989;SDS011;56046;47.270;11.368;2022-10-22T12:24:33;3.28;;;1.95;;
68989;SDS011;56046;47.270;11.368;2022-10-22T12:27:01;3.47;;;1.60;;
68989;SDS011;56046;47.270;11.368;2022-10-22T12:29:29;2.75;;;1.55;;
68989;SDS011;56046;47.270;11.368;2022-10-22T12:31:56;2.47;;;1.30;;
68989;SDS011;56046;47.270;11.368;2022-10-22T12:34:27;1.77;;;1.13;;
68989;SDS011;56046;47.270;11.368;2022-10-22T12:36:53;4.07;;;2.03;;
68989;SDS011;56046;47.270;11.368;2022-10-22T12:39:20;2.20;;;1.70;;
68989;SDS011;56046;47.270;11.368;2022-10-22T12:41:49;2.65;;;1.73;;
68989;SDS011;56046;47.270;11.368;2022-10-22T12:44:17;2.73;;;1.80;;
68989;SDS011;56046;47.270;11.368;2022-10-22T12:46:43;3.15;;;1.88;;
68989;SDS011;56046;47.270;11.368;2022-10-22T12:49:13;2.90;;;1.75;;
68989;SDS011;56046;47.270;11.368;2022-10-22T12:51:44;3.35;;;1.52;;
68989;SDS011;56046;47.270;11.368;2022-10-22T12:54:22;3.95;;;1.48;;
68989;SDS011;56046;47.270;11.368;2022-10-22T12:56:50;3.60;;;1.30;;
68989;SDS011;56046;47.270;11.368;2022-10-22T12:59:27;4.13;;;1.77;;
68989;SDS011;56046;47.270;11.368;2022-10-22T13:01:57;3.47;;;1.75;;
68989;SDS011;56046;47.270;11.368;2022-10-22T13:04:31;3.47;;;1.95;;
68989;SDS011;56046;47.270;11.368;2022-10-22T13:09:40;3.93;;;2.27;;
68989;SDS011;56046;47.270;11.368;2022-10-22T13:12:08;3.38;;;1.77;;
68989;SDS011;56046;47.270;11.368;2022-10-22T13:14:40;2.95;;;1.85;;
68989;SDS011;56046;47.270;11.368;2022-10-22T13:17:14;3.05;;;1.80;;
68989;SDS011;56046;47.270;11.368;2022-10-22T13:27:44;3.67;;;2.05;;
68989;SDS011;56046;47.270;11.368;2022-10-22T13:30:31;3.70;;;1.92;;
68989;SDS011;56046;47.270;11.368;2022-10-22T13:33:02;3.67;;;2.22;;
68989;SDS011;56046;47.270;11.368;2022-10-22T13:35:35;3.07;;;2.07;;
68989;SDS011;56046;47.270;11.368;2022-10-22T13:38:02;3.13;;;1.60;;
68989;SDS011;56046;47.270;11.368;2022-10-22T13:40:39;2.40;;;1.50;;
68989;SDS011;56046;47.270;11.368;2022-10-22T13:43:04;3.97;;;2.20;;
68989;SDS011;56046;47.270;11.368;2022-10-22T13:45:29;2.37;;;1.83;;
68989;SDS011;56046;47.270;11.368;2022-10-22T13:47:55;2.65;;;1.98;;
68989;SDS011;56046;47.270;11.368;2022-10-22T13:50:21;3.60;;;2.35;;
68989;SDS011;56046;47.270;11.368;2022-10-22T13:52:49;3.30;;;1.90;;
68989;SDS011;56046;47.270;11.368;2022-10-22T13:57:50;2.92;;;1.75;;
68989;SDS011;56046;47.270;11.368;2022-10-22T14:00:18;2.40;;;1.20;;
68989;SDS011;56046;47.270;11.368;2022-10-22T14:02:45;3.80;;;1.30;;
68989;SDS011;56046;47.270;11.368;2022-10-22T14:05:13;3.60;;;1.60;;
68989;SDS011;56046;47.270;11.368;2022-10-22T14:07:39;3.20;;;1.88;;
68989;SDS011;56046;47.270;11.368;2022-10-22T14:10:12;3.33;;;2.03;;
68989;SDS011;56046;47.270;11.368;2022-10-22T14:12:39;3.83;;;2.15;;
68989;SDS011;56046;47.270;11.368;2022-10-22T14:15:05;3.78;;;1.85;;
68989;SDS011;56046;47.270;11.368;2022-10-22T14:17:31;3.50;;;1.50;;
68989;SDS011;56046;47.270;11.368;2022-10-22T14:19:56;2.30;;;1.53;;
68989;SDS011;56046;47.270;11.368;2022-10-22T14:22:22;3.43;;;2.00;;
68989;SDS011;56046;47.270;11.368;2022-10-22T14:24:51;2.90;;;1.70;;
68989;SDS011;56046;47.270;11.368;2022-10-22T14:27:16;3.85;;;1.70;;
68989;SDS011;56046;47.270;11.368;2022-10-22T14:29:42;3.97;;;1.40;;
68989;SDS011;56046;47.270;11.368;2022-10-22T14:32:17;2.27;;;1.60;;
68989;SDS011;56046;47.270;11.368;2022-10-22T14:34:46;4.28;;;1.90;;
68989;SDS011;56046;47.270;11.368;2022-10-22T14:37:18;3.47;;;1.70;;
68989;SDS011;56046;47.270;11.368;2022-10-22T14:39:45;2.88;;;1.73;;
68989;SDS011;56046;47.270;11.368;2022-10-22T14:42:15;3.37;;;1.50;;
68989;SDS011;56046;47.270;11.368;2022-10-22T14:44:42;3.22;;;1.80;;
68989;SDS011;56046;47.270;11.368;2022-10-22T14:47:07;2.97;;;1.70;;
68989;SDS011;56046;47.270;11.368;2022-10-22T14:49:33;4.20;;;1.70;;
68989;SDS011;56046;47.270;11.368;2022-10-22T14:51:58;2.30;;;1.50;;
68989;SDS011;56046;47.270;11.368;2022-10-22T14:54:23;1.93;;;1.37;;
68989;SDS011;56046;47.270;11.368;2022-10-22T14:56:49;2.67;;;1.50;;
68989;SDS011;56046;47.270;11.368;2022-10-22T14:59:14;2.70;;;1.40;;
68989;SDS011;56046;47.270;11.368;2022-10-22T15:01:40;3.23;;;1.60;;
68989;SDS011;56046;47.270;11.368;2022-10-22T15:04:06;2.67;;;1.70;;
68989;SDS011;56046;47.270;11.368;2022-10-22T15:06:32;1.98;;;1.40;;
68989;SDS011;56046;47.270;11.368;2022-10-22T15:08:58;2.80;;;1.70;;
68989;SDS011;56046;47.270;11.368;2022-10-22T15:11:23;2.73;;;1.70;;
68989;SDS011;56046;47.270;11.368;2022-10-22T15:13:50;2.58;;;1.60;;
68989;SDS011;56046;47.270;11.368;2022-10-22T15:16:15;2.00;;;1.40;;
68989;SDS011;56046;47.270;11.368;2022-10-22T15:18:42;4.63;;;1.73;;
68989;SDS011;56046;47.270;11.368;2022-10-22T15:21:12;3.03;;;1.65;;
68989;SDS011;56046;47.270;11.368;2022-10-22T15:23:40;2.72;;;1.23;;
68989;SDS011;56046;47.270;11.368;2022-10-22T15:26:06;1.80;;;1.40;;
68989;SDS011;56046;47.270;11.368;2022-10-22T15:28:32;2.75;;;1.27;;
68989;SDS011;56046;47.270;11.368;2022-10-22T15:30:58;2.47;;;1.53;;
68989;SDS011;56046;47.270;11.368;2022-10-22T15:33:25;3.65;;;1.80;;
68989;SDS011;56046;47.270;11.368;2022-10-22T15:35:51;2.83;;;1.70;;
68989;SDS011;56046;47.270;11.368;2022-10-22T15:38:17;2.63;;;1.33;;
68989;SDS011;56046;47.270;11.368;2022-10-22T15:40:43;5.88;;;1.98;;
68989;SDS011;56046;47.270;11.368;2022-10-22T15:43:08;3.63;;;1.80;;
68989;SDS011;56046;47.270;11.368;2022-10-22T15:45:34;3.67;;;1.45;;
68989;SDS011;56046;47.270;11.368;2022-10-22T15:48:00;3.30;;;1.83;;
68989;SDS011;56046;47.270;11.368;2022-10-22T15:50:26;1.87;;;1.37;;
68989;SDS011;56046;47.270;11.368;2022-10-22T15:52:51;2.53;;;1.50;;
68989;SDS011;56046;47.270;11.368;2022-10-22T15:55:18;4.90;;;1.33;;
68989;SDS011;56046;47.270;11.368;2022-10-22T15:57:43;3.17;;;1.42;;
68989;SDS011;56046;47.270;11.368;2022-10-22T16:00:09;3.47;;;1.30;;
68989;SDS011;56046;47.270;11.368;2022-10-22T16:02:35;4.32;;;1.60;;
68989;SDS011;56046;47.270;11.368;2022-10-22T16:05:00;2.67;;;1.23;;
68989;SDS011;56046;47.270;11.368;2022-10-22T16:07:26;3.13;;;1.57;;
68989;SDS011;56046;47.270;11.368;2022-10-22T16:09:55;6.10;;;1.85;;
68989;SDS011;56046;47.270;11.368;2022-10-22T16:12:22;2.13;;;1.50;;
68989;SDS011;56046;47.270;11.368;2022-10-22T16:14:51;2.25;;;1.30;;
68989;SDS011;56046;47.270;11.368;2022-10-22T16:17:16;3.55;;;1.50;;
68989;SDS011;56046;47.270;11.368;2022-10-22T16:19:42;2.70;;;1.50;;
68989;SDS011;56046;47.270;11.368;2022-10-22T16:22:08;3.50;;;1.70;;
68989;SDS011;56046;47.270;11.368;2022-10-22T16:24:36;2.90;;;1.47;;
68989;SDS011;56046;47.270;11.368;2022-10-22T16:27:06;4.43;;;1.70;;